sensor_id;sensor_type;location;lat;lon;timestamp;P1;durP1;ratioP1;P2;durP2;ratioP2
14883;SDS011;7534;50.762;7.000;2023-12-20T04:52:36;13.90;;;5.00;;
14883;SDS011;7534;50.762;7.000;2023-12-20T04:55:02;10.53;;;4.20;;
14883;SDS011;7534;50.762;7.000;2023-12-20T04:57:31;12.90;;;4.63;;
14883;SDS011;7534;50.762;7.000;2023-12-20T04:59:57;10.03;;;4.17;;
14883;SDS011;7534;50.762;7.000;2023-12-20T05:02:30;11.93;;;4.33;;
14883;SDS011;7534;50.762;7.000;2023-12-20T05:04:55;11.43;;;4.60;;
14883;SDS011;7534;50.762;7.000;2023-12-20T05:07:21;11.70;;;4.30;;
14883;SDS011;7534;50.762;7.000;2023-12-20T05:09:49;11.03;;;4.33;;
14883;SDS011;7534;50.762;7.000;2023-12-20T05:12:18;11.90;;;4.10;;
14883;SDS011;7534;50.762;7.000;2023-12-20T05:14:48;10.80;;;4.63;;
14883;SDS011;7534;50.762;7.000;2023-12-20T05:17:16;11.97;;;4.50;;
14883;SDS011;7534;50.762;7.000;2023-12-20T05:19:46;11.80;;;5.10;;
14883;SDS011;7534;50.762;7.000;2023-12-20T05:22:19;11.70;;;4.87;;
14883;SDS011;7534;50.762;7.000;2023-12-20T05:24:46;10.63;;;5.70;;
14883;SDS011;7534;50.762;7.000;2023-12-20T05:27:12;13.77;;;5.80;;
14883;SDS011;7534;50.762;7.000;2023-12-20T05:29:41;12.70;;;5.33;;
14883;SDS011;7534;50.762;7.000;2023-12-20T05:32:07;11.60;;;4.60;;
14883;SDS011;7534;50.762;7.000;2023-12-20T05:34:33;13.23;;;4.70;;
14883;SDS011;7534;50.762;7.000;2023-12-20T05:36:58;15.30;;;5.30;;
14883;SDS011;7534;50.762;7.000;2023-12-20T05:39:24;14.83;;;5.00;;
14883;SDS011;7534;50.762;7.000;2023-12-20T05:41:50;14.87;;;5.17;;
14883;SDS011;7534;50.762;7.000;2023-12-20T05:44:16;16.37;;;5.13;;
14883;SDS011;7534;50.762;7.000;2023-12-20T05:46:42;8.93;;;4.40;;
14883;SDS011;7534;50.762;7.000;2023-12-20T05:49:07;12.67;;;4.40;;
14883;SDS011;7534;50.762;7.000;2023-12-20T05:51:33;8.60;;;4.97;;
14883;SDS011;7534;50.762;7.000;2023-12-20T05:53:59;13.07;;;5.00;;
14883;SDS011;7534;50.762;7.000;2023-12-20T05:56:24;12.67;;;4.77;;
14883;SDS011;7534;50.762;7.000;2023-12-20T05:58:50;14.03;;;4.80;;
14883;SDS011;7534;50.762;7.000;2023-12-20T06:01:16;16.70;;;5.67;;
14883;SDS011;7534;50.762;7.000;2023-12-20T06:03:44;10.57;;;4.57;;
14883;SDS011;7534;50.762;7.000;2023-12-20T06:06:11;13.47;;;4.90;;
14883;SDS011;7534;50.762;7.000;2023-12-20T06:08:37;8.27;;;4.50;;
14883;SDS011;7534;50.762;7.000;2023-12-20T06:11:03;11.40;;;5.07;;
14883;SDS011;7534;50.762;7.000;2023-12-20T06:13:30;8.87;;;4.07;;
14883;SDS011;7534;50.762;7.000;2023-12-20T06:15:57;11.87;;;4.60;;
14883;SDS011;7534;50.762;7.000;2023-12-20T06:18:23;13.30;;;4.83;;
14883;SDS011;7534;50.762;7.000;2023-12-20T06:20:49;15.07;;;6.43;;
14883;SDS011;7534;50.762;7.000;2023-12-20T06:23:15;12.20;;;4.57;;
14883;SDS011;7534;50.762;7.000;2023-12-20T06:25:41;11.13;;;4.17;;
14883;SDS011;7534;50.762;7.000;2023-12-20T06:28:06;14.07;;;4.77;;
14883;SDS011;7534;50.762;7.000;2023-12-20T06:30:33;12.53;;;4.73;;
14883;SDS011;7534;50.762;7.000;2023-12-20T06:32:59;19.97;;;5.07;;
14883;SDS011;7534;50.762;7.000;2023-12-20T06:35:27;9.57;;;4.13;;
14883;SDS011;7534;50.762;7.000;2023-12-20T06:37:53;9.37;;;3.80;;
14883;SDS011;7534;50.762;7.000;2023-12-20T06:40:19;14.63;;;3.90;;
14883;SDS011;7534;50.762;7.000;2023-12-20T06:42:46;13.93;;;4.60;;
14883;SDS011;7534;50.762;7.000;2023-12-20T06:45:11;11.73;;;4.53;;
14883;SDS011;7534;50.762;7.000;2023-12-20T06:47:37;11.03;;;4.37;;
14883;SDS011;7534;50.762;7.000;2023-12-20T06:50:03;15.57;;;4.07;;
14883;SDS011;7534;50.762;7.000;2023-12-20T06:52:30;11.77;;;4.67;;
14883;SDS011;7534;50.762;7.000;2023-12-20T06:54:56;12.77;;;4.00;;
14883;SDS011;7534;50.762;7.000;2023-12-20T06:57:21;11.03;;;4.47;;
14883;SDS011;7534;50.762;7.000;2023-12-20T06:59:47;12.23;;;4.97;;
14883;SDS011;7534;50.762;7.000;2023-12-20T07:02:13;10.73;;;4.33;;
14883;SDS011;7534;50.762;7.000;2023-12-20T07:04:39;10.87;;;4.07;;
14883;SDS011;7534;50.762;7.000;2023-12-20T07:07:05;12.37;;;4.37;;
14883;SDS011;7534;50.762;7.000;2023-12-20T07:09:32;12.27;;;4.10;;
14883;SDS011;7534;50.762;7.000;2023-12-20T07:11:58;12.23;;;4.23;;
14883;SDS011;7534;50.762;7.000;2023-12-20T07:14:24;12.83;;;4.27;;
14883;SDS011;7534;50.762;7.000;2023-12-20T07:16:52;12.80;;;4.13;;
14883;SDS011;7534;50.762;7.000;2023-12-20T07:19:17;12.80;;;3.80;;
14883;SDS011;7534;50.762;7.000;2023-12-20T07:21:43;9.97;;;3.77;;
14883;SDS011;7534;50.762;7.000;2023-12-20T07:24:13;14.53;;;4.60;;
14883;SDS011;7534;50.762;7.000;2023-12-20T07:26:41;12.03;;;4.13;;
14883;SDS011;7534;50.762;7.000;2023-12-20T07:29:08;12.57;;;4.77;;
14883;SDS011;7534;50.762;7.000;2023-12-20T07:31:33;11.37;;;3.87;;
14883;SDS011;7534;50.762;7.000;2023-12-20T07:34:00;11.27;;;3.63;;
14883;SDS011;7534;50.762;7.000;2023-12-20T07:36:25;10.50;;;4.07;;
14883;SDS011;7534;50.762;7.000;2023-12-20T07:38:51;11.30;;;4.30;;
14883;SDS011;7534;50.762;7.000;2023-12-20T07:41:17;13.88;;;4.80;;
14883;SDS011;7534;50.762;7.000;2023-12-20T07:43:46;12.10;;;4.53;;
14883;SDS011;7534;50.762;7.000;2023-12-20T07:46:12;10.53;;;3.60;;
14883;SDS011;7534;50.762;7.000;2023-12-20T07:48:38;10.10;;;4.10;;
14883;SDS011;7534;50.762;7.000;2023-12-20T07:51:04;11.27;;;3.70;;
14883;SDS011;7534;50.762;7.000;2023-12-20T07:53:34;10.93;;;3.77;;
14883;SDS011;7534;50.762;7.000;2023-12-20T07:56:00;10.67;;;3.73;;
14883;SDS011;7534;50.762;7.000;2023-12-20T07:58:26;11.27;;;3.57;;
14883;SDS011;7534;50.762;7.000;2023-12-20T08:00:51;10.00;;;4.00;;
14883;SDS011;7534;50.762;7.000;2023-12-20T08:03:17;13.70;;;3.83;;
14883;SDS011;7534;50.762;7.000;2023-12-20T08:05:43;10.70;;;3.53;;
14883;SDS011;7534;50.762;7.000;2023-12-20T08:08:09;9.50;;;3.60;;
14883;SDS011;7534;50.762;7.000;2023-12-20T08:10:35;9.57;;;3.83;;
14883;SDS011;7534;50.762;7.000;2023-12-20T08:13:00;11.60;;;4.03;;
14883;SDS011;7534;50.762;7.000;2023-12-20T08:15:26;11.90;;;3.43;;
14883;SDS011;7534;50.762;7.000;2023-12-20T08:17:52;8.90;;;3.27;;
14883;SDS011;7534;50.762;7.000;2023-12-20T08:20:18;13.50;;;4.20;;
14883;SDS011;7534;50.762;7.000;2023-12-20T08:22:46;12.13;;;4.20;;
14883;SDS011;7534;50.762;7.000;2023-12-20T08:25:12;8.67;;;3.90;;
14883;SDS011;7534;50.762;7.000;2023-12-20T08:27:39;11.30;;;3.60;;
14883;SDS011;7534;50.762;7.000;2023-12-20T08:30:12;9.37;;;3.57;;
14883;SDS011;7534;50.762;7.000;2023-12-20T08:32:39;7.67;;;3.80;;
14883;SDS011;7534;50.762;7.000;2023-12-20T08:35:04;8.70;;;3.57;;
14883;SDS011;7534;50.762;7.000;2023-12-20T08:37:31;12.23;;;3.60;;
14883;SDS011;7534;50.762;7.000;2023-12-20T08:39:57;11.70;;;3.27;;
14883;SDS011;7534;50.762;7.000;2023-12-20T08:42:23;9.67;;;3.63;;
14883;SDS011;7534;50.762;7.000;2023-12-20T08:44:50;12.57;;;4.00;;
14883;SDS011;7534;50.762;7.000;2023-12-20T08:47:17;13.03;;;3.87;;
14883;SDS011;7534;50.762;7.000;2023-12-20T08:49:43;12.73;;;3.73;;
14883;SDS011;7534;50.762;7.000;2023-12-20T08:52:09;12.47;;;3.60;;
14883;SDS011;7534;50.762;7.000;2023-12-20T08:54:35;13.40;;;3.47;;
14883;SDS011;7534;50.762;7.000;2023-12-20T08:57:00;11.83;;;4.23;;
14883;SDS011;7534;50.762;7.000;2023-12-20T08:59:26;9.77;;;3.10;;
14883;SDS011;7534;50.762;7.000;2023-12-20T09:01:55;9.40;;;4.00;;
14883;SDS011;7534;50.762;7.000;2023-12-20T09:04:21;7.60;;;3.33;;
14883;SDS011;7534;50.762;7.000;2023-12-20T09:06:46;7.17;;;3.47;;
14883;SDS011;7534;50.762;7.000;2023-12-20T09:09:12;10.40;;;4.10;;
14883;SDS011;7534;50.762;7.000;2023-12-20T09:11:40;10.20;;;3.50;;
14883;SDS011;7534;50.762;7.000;2023-12-20T09:14:07;9.03;;;3.30;;
14883;SDS011;7534;50.762;7.000;2023-12-20T09:16:33;8.00;;;3.37;;
14883;SDS011;7534;50.762;7.000;2023-12-20T09:18:59;11.07;;;3.50;;
14883;SDS011;7534;50.762;7.000;2023-12-20T09:21:26;13.40;;;3.90;;
14883;SDS011;7534;50.762;7.000;2023-12-20T09:23:52;9.57;;;3.47;;
14883;SDS011;7534;50.762;7.000;2023-12-20T09:26:19;12.33;;;3.77;;
14883;SDS011;7534;50.762;7.000;2023-12-20T09:28:45;8.00;;;3.23;;
14883;SDS011;7534;50.762;7.000;2023-12-20T09:31:20;8.90;;;3.17;;
14883;SDS011;7534;50.762;7.000;2023-12-20T09:33:49;11.27;;;3.50;;
14883;SDS011;7534;50.762;7.000;2023-12-20T09:36:15;8.53;;;3.73;;
14883;SDS011;7534;50.762;7.000;2023-12-20T09:38:44;8.53;;;3.30;;
14883;SDS011;7534;50.762;7.000;2023-12-20T09:41:10;12.50;;;3.57;;
14883;SDS011;7534;50.762;7.000;2023-12-20T09:43:37;11.00;;;3.20;;
14883;SDS011;7534;50.762;7.000;2023-12-20T09:46:05;9.33;;;3.10;;
14883;SDS011;7534;50.762;7.000;2023-12-20T09:48:35;10.83;;;3.57;;
14883;SDS011;7534;50.762;7.000;2023-12-20T09:51:13;9.63;;;3.20;;
14883;SDS011;7534;50.762;7.000;2023-12-20T09:56:17;7.73;;;2.60;;
14883;SDS011;7534;50.762;7.000;2023-12-20T09:58:43;13.07;;;3.57;;
14883;SDS011;7534;50.762;7.000;2023-12-20T10:01:12;11.73;;;3.40;;
14883;SDS011;7534;50.762;7.000;2023-12-20T10:03:51;8.03;;;3.07;;
14883;SDS011;7534;50.762;7.000;2023-12-20T10:06:26;7.90;;;3.27;;
14883;SDS011;7534;50.762;7.000;2023-12-20T10:08:55;7.67;;;3.30;;
14883;SDS011;7534;50.762;7.000;2023-12-20T10:11:21;10.37;;;3.33;;
14883;SDS011;7534;50.762;7.000;2023-12-20T10:13:52;9.30;;;3.10;;
14883;SDS011;7534;50.762;7.000;2023-12-20T10:16:45;13.27;;;3.83;;
14883;SDS011;7534;50.762;7.000;2023-12-20T10:19:12;9.93;;;3.53;;
14883;SDS011;7534;50.762;7.000;2023-12-20T10:21:41;8.23;;;3.10;;
14883;SDS011;7534;50.762;7.000;2023-12-20T10:24:08;9.83;;;3.40;;
14883;SDS011;7534;50.762;7.000;2023-12-20T10:26:34;7.80;;;3.30;;
14883;SDS011;7534;50.762;7.000;2023-12-20T10:29:01;10.98;;;3.88;;
14883;SDS011;7534;50.762;7.000;2023-12-20T10:31:29;10.37;;;3.53;;
14883;SDS011;7534;50.762;7.000;2023-12-20T10:33:58;10.50;;;3.57;;
14883;SDS011;7534;50.762;7.000;2023-12-20T10:36:26;10.80;;;3.60;;
14883;SDS011;7534;50.762;7.000;2023-12-20T10:38:59;10.93;;;3.67;;
14883;SDS011;7534;50.762;7.000;2023-12-20T10:41:31;9.70;;;3.53;;
14883;SDS011;7534;50.762;7.000;2023-12-20T10:44:02;9.10;;;3.00;;
14883;SDS011;7534;50.762;7.000;2023-12-20T10:46:31;8.80;;;2.97;;
14883;SDS011;7534;50.762;7.000;2023-12-20T10:49:04;7.03;;;3.20;;
14883;SDS011;7534;50.762;7.000;2023-12-20T10:51:34;7.60;;;3.33;;
14883;SDS011;7534;50.762;7.000;2023-12-20T10:54:24;8.50;;;3.20;;
14883;SDS011;7534;50.762;7.000;2023-12-20T10:56:51;9.83;;;3.13;;
14883;SDS011;7534;50.762;7.000;2023-12-20T11:02:28;8.77;;;3.00;;
14883;SDS011;7534;50.762;7.000;2023-12-20T11:08:04;8.50;;;2.93;;
14883;SDS011;7534;50.762;7.000;2023-12-20T11:10:43;8.23;;;3.07;;
14883;SDS011;7534;50.762;7.000;2023-12-20T11:13:57;8.27;;;3.25;;
14883;SDS011;7534;50.762;7.000;2023-12-20T11:16:31;9.68;;;3.70;;
14883;SDS011;7534;50.762;7.000;2023-12-20T11:18:57;8.67;;;3.53;;
14883;SDS011;7534;50.762;7.000;2023-12-20T11:21:34;9.93;;;3.23;;
14883;SDS011;7534;50.762;7.000;2023-12-20T11:24:07;9.10;;;3.37;;
14883;SDS011;7534;50.762;7.000;2023-12-20T11:26:41;12.23;;;3.50;;
14883;SDS011;7534;50.762;7.000;2023-12-20T11:32:44;9.77;;;3.70;;
14883;SDS011;7534;50.762;7.000;2023-12-20T11:35:01;7.50;;;3.37;;
14883;SDS011;7534;50.762;7.000;2023-12-20T11:37:45;9.33;;;3.43;;
14883;SDS011;7534;50.762;7.000;2023-12-20T11:40:17;7.50;;;3.10;;
14883;SDS011;7534;50.762;7.000;2023-12-20T11:42:44;8.73;;;3.43;;
14883;SDS011;7534;50.762;7.000;2023-12-20T11:45:14;10.77;;;3.80;;
14883;SDS011;7534;50.762;7.000;2023-12-20T11:47:47;9.40;;;3.63;;
14883;SDS011;7534;50.762;7.000;2023-12-20T11:50:19;5.30;;;3.00;;
14883;SDS011;7534;50.762;7.000;2023-12-20T11:52:47;8.33;;;3.30;;
14883;SDS011;7534;50.762;7.000;2023-12-20T11:57:46;9.30;;;4.00;;
14883;SDS011;7534;50.762;7.000;2023-12-20T12:00:12;8.03;;;3.30;;
14883;SDS011;7534;50.762;7.000;2023-12-20T12:02:39;10.10;;;3.40;;
14883;SDS011;7534;50.762;7.000;2023-12-20T12:05:05;8.63;;;2.80;;
14883;SDS011;7534;50.762;7.000;2023-12-20T12:07:34;7.10;;;2.97;;
14883;SDS011;7534;50.762;7.000;2023-12-20T12:10:01;10.10;;;2.93;;
14883;SDS011;7534;50.762;7.000;2023-12-20T12:12:34;6.60;;;3.13;;
14883;SDS011;7534;50.762;7.000;2023-12-20T12:18:01;8.57;;;3.03;;
14883;SDS011;7534;50.762;7.000;2023-12-20T12:20:30;6.20;;;2.70;;
14883;SDS011;7534;50.762;7.000;2023-12-20T12:23:06;6.63;;;2.87;;
14883;SDS011;7534;50.762;7.000;2023-12-20T12:25:38;6.57;;;2.63;;
14883;SDS011;7534;50.762;7.000;2023-12-20T12:28:18;9.00;;;2.93;;
14883;SDS011;7534;50.762;7.000;2023-12-20T12:33:34;9.53;;;3.20;;
14883;SDS011;7534;50.762;7.000;2023-12-20T12:36:02;8.63;;;2.93;;
14883;SDS011;7534;50.762;7.000;2023-12-20T12:38:30;7.20;;;2.70;;
14883;SDS011;7534;50.762;7.000;2023-12-20T12:40:56;10.77;;;3.67;;
14883;SDS011;7534;50.762;7.000;2023-12-20T12:43:22;10.93;;;3.77;;
14883;SDS011;7534;50.762;7.000;2023-12-20T12:45:49;10.27;;;3.43;;
14883;SDS011;7534;50.762;7.000;2023-12-20T12:48:18;6.73;;;2.93;;
14883;SDS011;7534;50.762;7.000;2023-12-20T12:50:45;9.83;;;3.17;;
14883;SDS011;7534;50.762;7.000;2023-12-20T12:53:11;8.07;;;3.70;;
14883;SDS011;7534;50.762;7.000;2023-12-20T12:55:37;9.77;;;3.57;;
14883;SDS011;7534;50.762;7.000;2023-12-20T12:58:02;7.03;;;2.83;;
14883;SDS011;7534;50.762;7.000;2023-12-20T13:00:31;6.60;;;3.40;;
14883;SDS011;7534;50.762;7.000;2023-12-20T13:02:58;7.60;;;3.40;;
14883;SDS011;7534;50.762;7.000;2023-12-20T13:05:23;10.02;;;4.18;;
14883;SDS011;7534;50.762;7.000;2023-12-20T13:07:49;10.10;;;3.83;;
14883;SDS011;7534;50.762;7.000;2023-12-20T13:10:17;8.97;;;3.57;;
14883;SDS011;7534;50.762;7.000;2023-12-20T13:12:43;14.10;;;3.57;;
14883;SDS011;7534;50.762;7.000;2023-12-20T13:15:09;11.30;;;3.83;;
14883;SDS011;7534;50.762;7.000;2023-12-20T13:17:35;7.47;;;3.10;;
14883;SDS011;7534;50.762;7.000;2023-12-20T13:20:01;11.20;;;3.93;;
14883;SDS011;7534;50.762;7.000;2023-12-20T13:22:28;9.50;;;3.57;;
14883;SDS011;7534;50.762;7.000;2023-12-20T13:24:54;6.37;;;3.13;;
14883;SDS011;7534;50.762;7.000;2023-12-20T13:27:21;8.43;;;3.73;;
14883;SDS011;7534;50.762;7.000;2023-12-20T13:29:47;9.17;;;3.17;;
14883;SDS011;7534;50.762;7.000;2023-12-20T13:32:25;6.63;;;3.50;;
14883;SDS011;7534;50.762;7.000;2023-12-20T13:35:20;9.63;;;3.97;;
14883;SDS011;7534;50.762;7.000;2023-12-20T14:33:32;3.77;;;2.07;;
14883;SDS011;7534;50.762;7.000;2023-12-20T14:36:00;5.70;;;2.30;;
14883;SDS011;7534;50.762;7.000;2023-12-20T14:38:31;4.20;;;2.27;;
14883;SDS011;7534;50.762;7.000;2023-12-20T14:41:12;6.33;;;2.23;;
14883;SDS011;7534;50.762;7.000;2023-12-20T14:43:44;2.93;;;1.90;;
14883;SDS011;7534;50.762;7.000;2023-12-20T14:46:30;3.67;;;2.37;;
14883;SDS011;7534;50.762;7.000;2023-12-20T14:49:14;4.00;;;1.90;;
14883;SDS011;7534;50.762;7.000;2023-12-20T14:57:32;5.17;;;2.07;;
14883;SDS011;7534;50.762;7.000;2023-12-20T15:02:43;4.20;;;2.00;;
14883;SDS011;7534;50.762;7.000;2023-12-20T15:05:24;4.83;;;2.10;;
14883;SDS011;7534;50.762;7.000;2023-12-20T15:08:02;3.23;;;1.90;;
14883;SDS011;7534;50.762;7.000;2023-12-20T15:13:13;8.93;;;2.47;;
14883;SDS011;7534;50.762;7.000;2023-12-20T15:15:59;6.77;;;2.40;;
14883;SDS011;7534;50.762;7.000;2023-12-20T15:18:42;6.37;;;3.00;;
14883;SDS011;7534;50.762;7.000;2023-12-20T15:21:10;6.63;;;3.10;;
14883;SDS011;7534;50.762;7.000;2023-12-20T15:26:46;7.00;;;3.33;;
14883;SDS011;7534;50.762;7.000;2023-12-20T15:29:18;7.60;;;3.20;;
14883;SDS011;7534;50.762;7.000;2023-12-20T15:32:13;9.07;;;3.78;;
14883;SDS011;7534;50.762;7.000;2023-12-20T15:34:49;11.23;;;3.92;;
14883;SDS011;7534;50.762;7.000;2023-12-20T15:37:33;8.63;;;3.70;;
14883;SDS011;7534;50.762;7.000;2023-12-20T15:40:03;10.30;;;3.67;;
14883;SDS011;7534;50.762;7.000;2023-12-20T15:42:33;6.20;;;3.80;;
14883;SDS011;7534;50.762;7.000;2023-12-20T15:45:31;10.82;;;4.15;;
14883;SDS011;7534;50.762;7.000;2023-12-20T15:48:10;10.33;;;3.87;;
14883;SDS011;7534;50.762;7.000;2023-12-20T15:50:42;7.90;;;4.00;;
14883;SDS011;7534;50.762;7.000;2023-12-20T15:53:24;8.33;;;4.10;;
14883;SDS011;7534;50.762;7.000;2023-12-20T15:55:59;9.57;;;3.40;;
14883;SDS011;7534;50.762;7.000;2023-12-20T15:58:43;6.87;;;3.73;;
14883;SDS011;7534;50.762;7.000;2023-12-20T16:01:32;8.33;;;3.50;;
14883;SDS011;7534;50.762;7.000;2023-12-20T16:04:16;5.73;;;3.40;;
14883;SDS011;7534;50.762;7.000;2023-12-20T16:07:00;8.60;;;3.50;;
14883;SDS011;7534;50.762;7.000;2023-12-20T16:09:40;7.70;;;3.93;;
14883;SDS011;7534;50.762;7.000;2023-12-20T16:12:31;7.97;;;3.50;;
14883;SDS011;7534;50.762;7.000;2023-12-20T16:15:03;6.93;;;3.70;;
14883;SDS011;7534;50.762;7.000;2023-12-20T16:17:47;9.37;;;3.60;;
14883;SDS011;7534;50.762;7.000;2023-12-20T16:22:52;9.17;;;3.87;;
14883;SDS011;7534;50.762;7.000;2023-12-20T16:25:20;10.77;;;4.30;;
14883;SDS011;7534;50.762;7.000;2023-12-20T16:28:06;10.47;;;4.27;;
14883;SDS011;7534;50.762;7.000;2023-12-20T17:07:29;10.13;;;3.90;;
14883;SDS011;7534;50.762;7.000;2023-12-20T17:09:55;7.47;;;4.07;;
14883;SDS011;7534;50.762;7.000;2023-12-20T17:12:21;8.13;;;3.80;;
14883;SDS011;7534;50.762;7.000;2023-12-20T17:14:47;14.10;;;4.77;;
14883;SDS011;7534;50.762;7.000;2023-12-20T17:17:19;12.00;;;4.50;;
14883;SDS011;7534;50.762;7.000;2023-12-20T17:19:45;9.83;;;4.00;;
14883;SDS011;7534;50.762;7.000;2023-12-20T17:22:17;10.60;;;3.93;;
14883;SDS011;7534;50.762;7.000;2023-12-20T17:24:43;7.13;;;3.80;;
14883;SDS011;7534;50.762;7.000;2023-12-20T17:27:09;8.37;;;4.20;;
14883;SDS011;7534;50.762;7.000;2023-12-20T17:29:40;7.73;;;4.40;;
14883;SDS011;7534;50.762;7.000;2023-12-20T17:32:06;8.73;;;4.00;;
14883;SDS011;7534;50.762;7.000;2023-12-20T17:34:32;7.30;;;3.70;;
14883;SDS011;7534;50.762;7.000;2023-12-20T17:36:58;9.37;;;4.17;;
14883;SDS011;7534;50.762;7.000;2023-12-20T17:39:26;12.20;;;4.43;;
14883;SDS011;7534;50.762;7.000;2023-12-20T17:41:55;8.83;;;4.00;;
14883;SDS011;7534;50.762;7.000;2023-12-20T17:44:20;8.37;;;3.87;;
14883;SDS011;7534;50.762;7.000;2023-12-20T17:46:47;9.10;;;4.03;;
14883;SDS011;7534;50.762;7.000;2023-12-20T17:49:22;7.70;;;3.70;;
14883;SDS011;7534;50.762;7.000;2023-12-20T17:51:48;7.00;;;3.90;;
14883;SDS011;7534;50.762;7.000;2023-12-20T17:54:14;8.10;;;3.60;;
14883;SDS011;7534;50.762;7.000;2023-12-20T17:56:40;8.60;;;3.63;;
14883;SDS011;7534;50.762;7.000;2023-12-20T17:59:14;8.63;;;3.80;;
14883;SDS011;7534;50.762;7.000;2023-12-20T18:01:43;10.83;;;3.80;;
14883;SDS011;7534;50.762;7.000;2023-12-20T18:04:09;6.90;;;3.40;;
14883;SDS011;7534;50.762;7.000;2023-12-20T18:06:35;7.67;;;4.00;;
14883;SDS011;7534;50.762;7.000;2023-12-20T18:09:00;8.77;;;3.93;;
14883;SDS011;7534;50.762;7.000;2023-12-20T18:11:26;10.30;;;4.07;;
14883;SDS011;7534;50.762;7.000;2023-12-20T18:13:55;8.13;;;3.97;;
14883;SDS011;7534;50.762;7.000;2023-12-20T18:16:20;9.30;;;3.90;;
14883;SDS011;7534;50.762;7.000;2023-12-20T18:18:48;9.23;;;3.97;;
14883;SDS011;7534;50.762;7.000;2023-12-20T18:21:14;8.67;;;4.47;;
14883;SDS011;7534;50.762;7.000;2023-12-20T18:23:41;7.80;;;4.30;;
14883;SDS011;7534;50.762;7.000;2023-12-20T18:26:06;11.83;;;4.40;;
14883;SDS011;7534;50.762;7.000;2023-12-20T18:28:33;6.80;;;3.80;;
14883;SDS011;7534;50.762;7.000;2023-12-20T18:30:59;8.13;;;3.87;;
14883;SDS011;7534;50.762;7.000;2023-12-20T18:33:25;10.80;;;4.00;;
14883;SDS011;7534;50.762;7.000;2023-12-20T18:35:51;8.73;;;3.27;;
14883;SDS011;7534;50.762;7.000;2023-12-20T18:38:16;9.33;;;3.90;;
14883;SDS011;7534;50.762;7.000;2023-12-20T18:41:01;8.43;;;3.63;;
14883;SDS011;7534;50.762;7.000;2023-12-20T18:43:29;7.37;;;3.40;;
14883;SDS011;7534;50.762;7.000;2023-12-20T18:45:58;8.37;;;3.53;;
14883;SDS011;7534;50.762;7.000;2023-12-20T18:48:38;8.23;;;3.33;;
14883;SDS011;7534;50.762;7.000;2023-12-20T18:51:11;8.90;;;3.23;;
14883;SDS011;7534;50.762;7.000;2023-12-20T18:53:41;7.10;;;3.20;;
14883;SDS011;7534;50.762;7.000;2023-12-20T18:56:12;4.90;;;2.80;;
14883;SDS011;7534;50.762;7.000;2023-12-20T18:59:00;9.07;;;3.73;;
14883;SDS011;7534;50.762;7.000;2023-12-20T19:01:26;6.07;;;3.53;;
14883;SDS011;7534;50.762;7.000;2023-12-20T19:07:04;5.90;;;3.23;;
14883;SDS011;7534;50.762;7.000;2023-12-20T19:09:34;5.70;;;2.83;;
14883;SDS011;7534;50.762;7.000;2023-12-20T19:12:00;6.03;;;2.50;;
14883;SDS011;7534;50.762;7.000;2023-12-20T19:14:26;7.43;;;2.73;;
14883;SDS011;7534;50.762;7.000;2023-12-20T19:16:56;8.67;;;2.90;;
14883;SDS011;7534;50.762;7.000;2023-12-20T19:19:26;6.30;;;2.70;;
14883;SDS011;7534;50.762;7.000;2023-12-20T19:22:05;6.33;;;2.40;;
14883;SDS011;7534;50.762;7.000;2023-12-20T19:24:36;5.60;;;2.80;;
14883;SDS011;7534;50.762;7.000;2023-12-20T19:27:05;4.67;;;2.37;;
14883;SDS011;7534;50.762;7.000;2023-12-20T19:29:30;11.80;;;2.93;;
14883;SDS011;7534;50.762;7.000;2023-12-20T19:31:57;4.63;;;2.50;;
14883;SDS011;7534;50.762;7.000;2023-12-20T19:34:25;4.37;;;2.43;;
14883;SDS011;7534;50.762;7.000;2023-12-20T19:36:51;7.80;;;2.90;;
14883;SDS011;7534;50.762;7.000;2023-12-20T19:39:17;4.23;;;2.03;;
14883;SDS011;7534;50.762;7.000;2023-12-20T19:41:44;5.80;;;2.30;;
14883;SDS011;7534;50.762;7.000;2023-12-20T19:44:09;6.37;;;2.57;;
14883;SDS011;7534;50.762;7.000;2023-12-20T19:46:35;4.23;;;2.30;;
14883;SDS011;7534;50.762;7.000;2023-12-20T19:49:01;7.03;;;2.33;;
14883;SDS011;7534;50.762;7.000;2023-12-20T19:51:28;4.07;;;2.00;;
14883;SDS011;7534;50.762;7.000;2023-12-20T19:53:54;6.53;;;2.20;;
14883;SDS011;7534;50.762;7.000;2023-12-20T19:56:20;3.77;;;2.10;;
14883;SDS011;7534;50.762;7.000;2023-12-20T19:58:56;5.07;;;2.30;;
14883;SDS011;7534;50.762;7.000;2023-12-20T20:01:24;5.93;;;2.20;;
14883;SDS011;7534;50.762;7.000;2023-12-20T20:03:49;6.50;;;2.00;;
14883;SDS011;7534;50.762;7.000;2023-12-20T20:06:16;4.07;;;2.10;;
14883;SDS011;7534;50.762;7.000;2023-12-20T20:08:42;4.00;;;1.83;;
14883;SDS011;7534;50.762;7.000;2023-12-20T20:11:17;3.37;;;1.90;;
14883;SDS011;7534;50.762;7.000;2023-12-20T20:13:51;6.60;;;2.10;;
14883;SDS011;7534;50.762;7.000;2023-12-20T20:16:22;5.03;;;1.90;;
14883;SDS011;7534;50.762;7.000;2023-12-20T20:18:48;4.23;;;1.60;;
14883;SDS011;7534;50.762;7.000;2023-12-20T20:21:19;5.53;;;1.97;;
14883;SDS011;7534;50.762;7.000;2023-12-20T20:24:10;5.57;;;2.17;;
14883;SDS011;7534;50.762;7.000;2023-12-20T20:26:45;5.20;;;2.20;;
14883;SDS011;7534;50.762;7.000;2023-12-20T20:29:14;4.50;;;2.20;;
14883;SDS011;7534;50.762;7.000;2023-12-20T20:31:47;3.90;;;1.90;;
14883;SDS011;7534;50.762;7.000;2023-12-20T20:34:18;3.67;;;2.07;;
14883;SDS011;7534;50.762;7.000;2023-12-20T20:36:49;4.73;;;1.90;;
14883;SDS011;7534;50.762;7.000;2023-12-20T20:39:23;5.73;;;2.13;;
14883;SDS011;7534;50.762;7.000;2023-12-20T20:41:59;5.30;;;2.47;;
14883;SDS011;7534;50.762;7.000;2023-12-20T20:44:25;6.03;;;2.10;;
14883;SDS011;7534;50.762;7.000;2023-12-20T20:46:51;5.70;;;2.00;;
14883;SDS011;7534;50.762;7.000;2023-12-20T20:49:19;4.07;;;1.80;;
14883;SDS011;7534;50.762;7.000;2023-12-20T20:51:46;6.27;;;2.60;;
14883;SDS011;7534;50.762;7.000;2023-12-20T20:54:12;3.13;;;2.20;;
14883;SDS011;7534;50.762;7.000;2023-12-20T20:56:38;6.57;;;2.00;;
14883;SDS011;7534;50.762;7.000;2023-12-20T20:59:04;4.07;;;1.70;;
14883;SDS011;7534;50.762;7.000;2023-12-20T21:01:31;4.53;;;1.70;;
14883;SDS011;7534;50.762;7.000;2023-12-20T21:04:12;3.70;;;1.90;;
14883;SDS011;7534;50.762;7.000;2023-12-20T21:06:43;6.03;;;2.37;;
14883;SDS011;7534;50.762;7.000;2023-12-20T21:09:15;4.77;;;2.00;;
14883;SDS011;7534;50.762;7.000;2023-12-20T21:11:41;4.37;;;2.20;;
14883;SDS011;7534;50.762;7.000;2023-12-20T21:14:07;3.00;;;1.80;;
14883;SDS011;7534;50.762;7.000;2023-12-20T21:16:33;2.50;;;1.50;;
14883;SDS011;7534;50.762;7.000;2023-12-20T21:19:00;1.97;;;1.60;;
14883;SDS011;7534;50.762;7.000;2023-12-20T21:21:27;4.87;;;1.60;;
14883;SDS011;7534;50.762;7.000;2023-12-20T21:23:54;2.77;;;1.67;;
14883;SDS011;7534;50.762;7.000;2023-12-20T21:26:20;3.43;;;1.50;;
14883;SDS011;7534;50.762;7.000;2023-12-20T21:28:47;2.13;;;1.43;;
14883;SDS011;7534;50.762;7.000;2023-12-20T21:31:16;5.23;;;1.80;;
14883;SDS011;7534;50.762;7.000;2023-12-20T21:33:41;3.30;;;1.60;;
14883;SDS011;7534;50.762;7.000;2023-12-20T21:36:08;4.47;;;2.10;;
14883;SDS011;7534;50.762;7.000;2023-12-20T21:38:36;4.63;;;1.67;;
14883;SDS011;7534;50.762;7.000;2023-12-20T21:41:05;2.13;;;1.63;;
14883;SDS011;7534;50.762;7.000;2023-12-20T21:43:33;6.10;;;2.30;;
14883;SDS011;7534;50.762;7.000;2023-12-20T21:45:59;1.87;;;1.30;;
14883;SDS011;7534;50.762;7.000;2023-12-20T21:48:28;3.17;;;1.60;;
14883;SDS011;7534;50.762;7.000;2023-12-20T21:50:55;2.43;;;1.40;;
14883;SDS011;7534;50.762;7.000;2023-12-20T21:53:22;3.70;;;1.50;;
14883;SDS011;7534;50.762;7.000;2023-12-20T21:55:48;5.13;;;1.80;;
14883;SDS011;7534;50.762;7.000;2023-12-20T21:58:14;4.53;;;1.57;;
14883;SDS011;7534;50.762;7.000;2023-12-20T22:00:40;4.90;;;1.77;;
14883;SDS011;7534;50.762;7.000;2023-12-20T22:03:06;2.57;;;1.40;;
14883;SDS011;7534;50.762;7.000;2023-12-20T22:05:34;2.53;;;1.50;;
14883;SDS011;7534;50.762;7.000;2023-12-20T22:08:02;1.90;;;1.27;;
14883;SDS011;7534;50.762;7.000;2023-12-20T22:10:30;1.60;;;1.20;;
14883;SDS011;7534;50.762;7.000;2023-12-20T22:13:02;3.20;;;1.47;;